createdAt,value
2023-03-20T00:00:34.019Z,612.20
2023-03-20T00:03:03.719Z,1075.03
2023-03-20T00:05:33.395Z,617.73
2023-03-20T00:08:01.900Z,415.77
2023-03-20T00:10:35.245Z,1303.37
2023-03-20T00:13:03.720Z,168.77
2023-03-20T00:15:34.469Z,621.90
2023-03-20T00:18:03.852Z,92.00
2023-03-20T00:20:31.854Z,716.20
2023-03-20T00:22:59.784Z,182.40
2023-03-20T00:25:28.427Z,59.50
2023-03-20T00:27:56.780Z,190.77
2023-03-20T00:30:29.491Z,603.37
2023-03-20T00:32:59.258Z,171.90
2023-03-20T00:35:31.201Z,451.43
2023-03-20T00:37:59.695Z,275.17
2023-03-20T00:40:31.338Z,77.23
2023-03-20T00:43:01.995Z,1733.77
2023-03-20T00:45:31.249Z,1100.73
2023-03-20T00:47:59.784Z,1500.03
2023-03-20T00:50:31.707Z,126.40
2023-03-20T00:53:00.276Z,403.37
2023-03-20T00:55:30.674Z,1150.77
2023-03-20T00:58:01.697Z,307.87
2023-03-20T01:00:39.384Z,345.20
2023-03-20T01:03:14.816Z,394.10
2023-03-20T01:05:44.514Z,517.17
2023-03-20T01:08:17.734Z,19.63
2023-03-20T01:10:47.476Z,687.70
2023-03-20T01:13:21.375Z,686.97
2023-03-20T01:15:51.536Z,401.73
2023-03-20T01:18:21.436Z,726.17
2023-03-20T01:20:52.906Z,891.13
2023-03-20T01:23:23.023Z,574.93
2023-03-20T01:25:51.387Z,1502.37
2023-03-20T01:28:22.744Z,143.27
2023-03-20T01:30:51.561Z,809.67
2023-03-20T01:33:21.242Z,1172.63
2023-03-20T01:35:51.765Z,159.97
2023-03-20T01:38:22.052Z,64.10
2023-03-20T01:40:54.216Z,250.77
2023-03-20T01:43:23.765Z,14.43
2023-03-20T01:46:00.388Z,344.17
2023-03-20T01:48:37.796Z,323.83
2023-03-20T01:51:07.667Z,112.83
2023-03-20T01:53:35.720Z,194.83
2023-03-20T01:56:03.795Z,45.87
2023-03-20T01:58:37.372Z,364.13
2023-03-20T02:01:06.817Z,869.37
2023-03-20T02:03:35.168Z,555.47
2023-03-20T02:06:03.108Z,1555.43
2023-03-20T02:08:37.977Z,344.03
2023-03-20T02:11:07.098Z,449.13
2023-03-20T02:13:36.360Z,437.57
2023-03-20T02:16:08.123Z,1227.50
2023-03-20T02:18:36.693Z,415.90
2023-03-20T02:21:41.534Z,795.63
2023-03-20T02:24:54.148Z,724.03
2023-03-20T02:27:30.253Z,428.73
2023-03-20T02:30:43.727Z,436.27
2023-03-20T02:33:51.999Z,145.90
2023-03-20T02:36:37.359Z,376.50
2023-03-20T02:39:35.748Z,905.73
2023-03-20T02:42:12.993Z,53.30
2023-03-20T02:44:47.180Z,523.90
2023-03-20T02:47:21.320Z,812.43
2023-03-20T02:49:58.732Z,1519.07
2023-03-20T02:52:34.933Z,1733.13
2023-03-20T02:55:17.877Z,615.90
2023-03-20T02:57:58.374Z,153.90
2023-03-20T03:00:30.849Z,61.43
2023-03-20T03:03:06.494Z,135.27
2023-03-20T03:05:39.058Z,321.80
2023-03-20T03:08:10.858Z,690.03
2023-03-20T03:10:44.366Z,497.17
2023-03-20T03:13:16.424Z,858.67
2023-03-20T03:15:47.397Z,1612.90
2023-03-20T03:18:21.073Z,328.90
2023-03-20T03:20:53.386Z,425.23
2023-03-20T03:23:27.511Z,81.53
2023-03-20T03:25:58.977Z,278.73
2023-03-20T03:28:37.043Z,879.37
2023-03-20T03:31:07.563Z,168.23
2023-03-20T03:33:38.816Z,339.50
2023-03-20T03:36:14.100Z,668.80
2023-03-20T03:38:50.230Z,869.67
2023-03-20T03:41:27.892Z,72.70
2023-03-20T03:44:06.184Z,345.87
2023-03-20T03:46:44.430Z,565.40
2023-03-20T03:49:17.912Z,218.03
2023-03-20T03:51:49.718Z,82.97
2023-03-20T03:54:22.037Z,806.47
2023-03-20T03:56:52.274Z,1007.07
2023-03-20T03:59:25.988Z,379.40
2023-03-20T04:01:55.451Z,187.00
2023-03-20T04:04:25.358Z,777.50
2023-03-20T04:06:53.430Z,565.33
2023-03-20T04:09:21.472Z,532.77
2023-03-20T04:11:53.677Z,371.83
2023-03-20T04:14:21.805Z,328.50
2023-03-20T04:16:49.792Z,586.13
2023-03-20T04:19:17.956Z,214.33
2023-03-20T04:21:46.653Z,452.30
2023-03-20T04:24:15.382Z,48.40
2023-03-20T04:26:43.461Z,40.63
2023-03-20T04:29:13.386Z,764.90
2023-03-20T04:31:41.403Z,31.67
2023-03-20T04:34:09.429Z,78.30
2023-03-20T04:36:37.382Z,900.43
2023-03-20T04:39:05.491Z,1105.70
2023-03-20T04:41:33.419Z,410.10
2023-03-20T04:44:01.377Z,47.57
2023-03-20T04:46:30.665Z,243.57
2023-03-20T04:48:58.665Z,945.73
2023-03-20T04:51:26.604Z,1710.17
2023-03-20T04:53:54.614Z,358.13
2023-03-20T04:56:22.556Z,521.57
2023-03-20T04:58:50.625Z,103.60
2023-03-20T05:01:18.555Z,1146.03
2023-03-20T05:03:47.953Z,259.33
2023-03-20T05:06:15.946Z,1157.43
2023-03-20T05:08:43.898Z,1127.90
2023-03-20T05:11:11.840Z,295.03
2023-03-20T05:13:39.789Z,412.17
2023-03-20T05:16:09.460Z,857.87
2023-03-20T05:18:37.426Z,607.03
2023-03-20T05:21:07.932Z,452.97
2023-03-20T05:23:36.126Z,371.87
2023-03-20T05:26:04.159Z,658.87
2023-03-20T05:28:32.435Z,648.20
2023-03-20T05:31:00.486Z,1515.70
2023-03-20T05:33:28.566Z,111.70
2023-03-20T05:35:56.610Z,810.53
2023-03-20T05:38:26.772Z,858.77
2023-03-20T05:40:58.739Z,461.73
2023-03-20T05:43:27.028Z,383.87
2023-03-20T05:45:55.822Z,153.93
2023-03-20T05:48:24.090Z,667.60
2023-03-20T05:50:52.069Z,691.77
2023-03-20T05:53:20.374Z,393.80
2023-03-20T05:55:49.717Z,735.77
2023-03-20T05:58:17.682Z,333.90
2023-03-20T06:00:45.673Z,582.00
2023-03-20T06:03:13.704Z,365.17
2023-03-20T06:05:42.215Z,616.80
2023-03-20T06:08:10.301Z,295.60
2023-03-20T06:10:38.246Z,949.63
2023-03-20T06:13:07.552Z,499.00
2023-03-20T06:15:36.057Z,1623.17
2023-03-20T06:18:04.236Z,574.87
2023-03-20T06:20:32.219Z,740.73
2023-03-20T06:23:00.396Z,498.20
2023-03-20T06:25:28.597Z,869.30
2023-03-20T06:27:57.749Z,983.10
2023-03-20T06:30:27.089Z,1893.07
2023-03-20T06:32:55.082Z,1278.77
2023-03-20T06:35:23.127Z,1475.63
2023-03-20T06:37:51.229Z,423.80
2023-03-20T06:40:19.271Z,575.37
2023-03-20T06:42:47.244Z,900.87
2023-03-20T06:45:15.861Z,1062.30
2023-03-20T06:47:45.428Z,626.97
2023-03-20T06:50:13.610Z,584.50
2023-03-20T06:52:41.790Z,128.53
2023-03-20T06:55:10.496Z,225.40
2023-03-20T06:57:38.439Z,1659.57
2023-03-20T07:00:07.909Z,222.10
2023-03-20T07:02:36.109Z,208.37
2023-03-20T07:05:05.978Z,289.73
2023-03-20T07:07:34.301Z,1233.27
2023-03-20T07:10:02.666Z,1960.13
2023-03-20T07:12:30.600Z,958.60
2023-03-20T07:14:58.573Z,1999.90
2023-03-20T07:17:26.656Z,1999.90
2023-03-20T07:19:54.862Z,1065.33
2023-03-20T07:22:26.117Z,829.13
2023-03-20T07:24:54.446Z,1130.07
2023-03-20T07:27:22.409Z,540.57
2023-03-20T07:29:50.710Z,1999.90
2023-03-20T07:32:18.657Z,732.73
2023-03-20T07:34:47.642Z,953.30
2023-03-20T07:37:15.885Z,973.57
2023-03-20T07:39:45.270Z,1609.27
2023-03-20T07:42:14.595Z,1149.60
2023-03-20T07:44:42.574Z,1170.93
2023-03-20T07:47:10.601Z,936.77
2023-03-20T07:49:38.582Z,1244.67
2023-03-20T07:52:06.730Z,505.40
2023-03-20T07:54:34.720Z,1999.90
2023-03-20T07:57:05.418Z,639.43
2023-03-20T07:59:33.629Z,987.73
2023-03-20T08:02:01.576Z,1999.90
2023-03-20T08:04:30.230Z,1999.90
2023-03-20T08:06:58.280Z,626.57
2023-03-20T08:09:26.310Z,1999.90
2023-03-20T08:11:54.290Z,1665.67
2023-03-20T08:14:23.918Z,1997.67
2023-03-20T08:17:06.273Z,1999.90
2023-03-20T08:19:40.115Z,1187.47
2023-03-20T08:22:08.261Z,1999.90
2023-03-20T08:24:36.709Z,1962.50
2023-03-20T08:27:05.149Z,1693.37
2023-03-20T08:29:34.594Z,1063.43
2023-03-20T08:32:02.806Z,1999.90
2023-03-20T08:34:32.129Z,1999.90
2023-03-20T08:37:00.211Z,1999.90
2023-03-20T08:39:28.154Z,1996.77
2023-03-20T08:41:56.157Z,1999.90
2023-03-20T08:44:24.184Z,1999.90
2023-03-20T08:46:55.066Z,1889.63
2023-03-20T08:49:23.017Z,1999.90
2023-03-20T08:51:50.958Z,1999.90
2023-03-20T08:54:19.105Z,1999.90
2023-03-20T08:56:47.141Z,1988.17
2023-03-20T08:59:15.087Z,1999.90
2023-03-20T09:01:49.800Z,1999.90
2023-03-20T09:04:19.909Z,1999.90
2023-03-20T09:06:47.903Z,1999.90
2023-03-20T09:09:20.913Z,1999.90
2023-03-20T09:11:48.996Z,1999.90
2023-03-20T09:14:17.087Z,1999.90
2023-03-20T09:16:45.100Z,1999.90
2023-03-20T09:19:13.104Z,1999.90
2023-03-20T09:21:42.600Z,1999.90
2023-03-20T09:24:11.487Z,1999.90
2023-03-20T09:26:39.842Z,1999.90
2023-03-20T09:29:07.949Z,1999.90
2023-03-20T09:31:36.142Z,1999.90
2023-03-20T09:34:04.432Z,1999.90
2023-03-20T09:36:32.414Z,1999.90
2023-03-20T09:39:02.076Z,1999.90
2023-03-20T09:41:48.946Z,1999.90
2023-03-20T09:44:41.779Z,1999.90
2023-03-20T09:47:21.311Z,1999.90
2023-03-20T09:50:00.205Z,1999.90
2023-03-20T09:52:31.383Z,1999.90
2023-03-20T09:55:03.945Z,1999.90
2023-03-20T09:57:39.069Z,1999.90
2023-03-20T10:00:13.631Z,1999.90
2023-03-20T10:02:54.281Z,1999.90
2023-03-20T10:05:27.134Z,1999.90
2023-03-20T10:07:57.775Z,1999.90
2023-03-20T10:10:35.503Z,1999.90
2023-03-20T10:13:17.063Z,1999.90
2023-03-20T10:15:52.162Z,1999.90
2023-03-20T10:18:25.866Z,1999.90
2023-03-20T10:20:59.031Z,1999.90
2023-03-20T10:23:34.621Z,1999.90
2023-03-20T10:26:07.740Z,1999.90
2023-03-20T10:28:41.199Z,1999.90
2023-03-20T10:31:24.016Z,1999.90
2023-03-20T10:34:03.675Z,1999.90
2023-03-20T10:36:52.142Z,1999.90
2023-03-20T10:39:36.097Z,1999.90
2023-03-20T10:42:14.603Z,1999.90
2023-03-20T10:44:50.310Z,1999.90
2023-03-20T10:47:21.854Z,1999.90
2023-03-20T10:49:54.798Z,1999.90
2023-03-20T10:52:27.452Z,1999.90
2023-03-20T10:54:58.936Z,1999.90
2023-03-20T10:57:32.769Z,1999.90
2023-03-20T11:00:01.205Z,1999.90
2023-03-20T11:02:31.529Z,1999.90
2023-03-20T11:05:01.586Z,1999.90
2023-03-20T11:07:34.135Z,1999.90
2023-03-20T11:10:19.763Z,1999.90
2023-03-20T11:12:52.379Z,1999.90
2023-03-20T11:15:24.301Z,1999.90
2023-03-20T11:17:54.144Z,1999.90
2023-03-20T11:20:22.098Z,1999.90
2023-03-20T11:22:50.978Z,1999.90
2023-03-20T11:25:29.482Z,1999.90
2023-03-20T11:27:59.618Z,1999.90
2023-03-20T11:30:28.202Z,1999.90
2023-03-20T11:33:02.103Z,1999.90
2023-03-20T11:35:32.676Z,1999.90
2023-03-20T11:38:14.248Z,1999.90
2023-03-20T11:40:42.723Z,1999.90
2023-03-20T11:43:14.639Z,1999.90
2023-03-20T11:45:45.078Z,1999.90
2023-03-20T11:48:20.998Z,1999.90
2023-03-20T11:50:53.288Z,1999.90
2023-03-20T11:53:26.092Z,1999.90
2023-03-20T11:56:07.669Z,1999.90
2023-03-20T11:58:38.983Z,1999.90
2023-03-20T12:01:12.996Z,1999.90
2023-03-20T12:03:47.659Z,1999.90
2023-03-20T12:06:18.727Z,1999.90
2023-03-20T12:08:55.037Z,1999.90
2023-03-20T12:11:37.323Z,1999.90
2023-03-20T12:14:14.620Z,1999.90
2023-03-20T12:16:43.481Z,1999.90
2023-03-20T12:19:18.104Z,1999.90
2023-03-20T12:21:50.153Z,1999.90
2023-03-20T12:24:28.881Z,1999.90
2023-03-20T12:27:01.990Z,1999.90
2023-03-20T12:29:38.405Z,1999.90
2023-03-20T12:32:12.158Z,1999.90
2023-03-20T12:34:46.996Z,1999.90
2023-03-20T12:37:18.463Z,1999.90
2023-03-20T12:39:52.130Z,1999.90
2023-03-20T12:42:36.522Z,1999.90
2023-03-20T12:45:12.397Z,1999.90
2023-03-20T12:47:55.005Z,1999.90
2023-03-20T12:50:32.165Z,1999.90
2023-03-20T12:53:18.082Z,1999.90
2023-03-20T12:56:00.607Z,1999.90
2023-03-20T12:58:38.619Z,1999.90
2023-03-20T13:01:12.728Z,1999.90
2023-03-20T13:03:54.960Z,1999.90
2023-03-20T13:06:36.636Z,1999.90
2023-03-20T13:09:44.729Z,1999.90
2023-03-20T13:12:24.034Z,1999.90
2023-03-20T13:15:00.814Z,1999.90
2023-03-20T13:17:37.959Z,1999.90
2023-03-20T13:20:22.793Z,1999.90
2023-03-20T13:23:00.996Z,1999.90
2023-03-20T13:25:53.776Z,1999.90
2023-03-20T13:28:30.878Z,1999.90
2023-03-20T13:31:07.000Z,1999.90
2023-03-20T13:33:48.571Z,1999.90
2023-03-20T13:36:26.316Z,1999.90
2023-03-20T13:38:59.220Z,1999.90
2023-03-20T13:41:28.209Z,1999.90
2023-03-20T13:44:01.234Z,1999.90
2023-03-20T13:46:36.348Z,1999.90
2023-03-20T13:49:09.759Z,1999.90
2023-03-20T13:51:43.572Z,1999.90
2023-03-20T13:54:24.762Z,1999.90
2023-03-20T13:56:58.958Z,1999.90
2023-03-20T13:59:47.342Z,1999.90
2023-03-20T14:02:28.954Z,1999.90
2023-03-20T14:05:05.729Z,1999.90
2023-03-20T14:07:36.078Z,1999.90
2023-03-20T14:10:39.273Z,1999.90
2023-03-20T14:13:13.960Z,1999.90
2023-03-20T14:15:50.362Z,1999.90
2023-03-20T14:18:22.473Z,1999.90
2023-03-20T14:20:58.753Z,1999.90
2023-03-20T14:23:47.277Z,1999.90
2023-03-20T14:26:23.562Z,1999.90
2023-03-20T14:28:58.909Z,1999.90
2023-03-20T14:31:32.292Z,1999.90
2023-03-20T14:34:09.538Z,1999.90
2023-03-20T14:36:56.964Z,1999.90
2023-03-20T14:39:41.072Z,1999.90
2023-03-20T14:42:34.993Z,1999.90
2023-03-20T14:45:31.818Z,1999.90
2023-03-20T14:48:05.906Z,1999.90
2023-03-20T14:50:39.618Z,1999.90
2023-03-20T14:53:17.439Z,1999.90
2023-03-20T14:55:53.010Z,1999.90
2023-03-20T14:58:50.783Z,1999.90
2023-03-20T15:01:29.782Z,1999.90
2023-03-20T15:04:01.069Z,1999.90
2023-03-20T15:06:30.601Z,1999.90
2023-03-20T15:09:02.691Z,1999.90
2023-03-20T15:11:31.648Z,1999.90
2023-03-20T15:14:02.324Z,1999.90
2023-03-20T15:16:31.904Z,1999.90
2023-03-20T15:19:00.521Z,1999.90
2023-03-20T15:21:36.279Z,1999.90
2023-03-20T15:24:06.409Z,1999.90
2023-03-20T15:26:36.707Z,1999.90
2023-03-20T15:29:07.965Z,1999.90
2023-03-20T15:31:38.490Z,1999.90
2023-03-20T15:34:12.219Z,1999.90
2023-03-20T15:36:42.021Z,1999.90
2023-03-20T15:39:16.219Z,1999.90
2023-03-20T15:41:48.252Z,1999.90
2023-03-20T15:44:22.480Z,1999.90
2023-03-20T15:46:56.916Z,1999.90
2023-03-20T15:49:25.558Z,1999.90
2023-03-20T15:51:55.541Z,1998.67
2023-03-20T15:54:25.277Z,1980.87
2023-03-20T15:56:55.318Z,1977.50
2023-03-20T15:59:26.935Z,1568.50
2023-03-20T16:01:59.027Z,1662.90
2023-03-20T16:04:28.316Z,1999.90
2023-03-20T16:06:58.290Z,1999.90
2023-03-20T16:09:28.727Z,1999.90
2023-03-20T16:11:59.775Z,1999.90
2023-03-20T16:14:30.536Z,1965.57
2023-03-20T16:17:01.163Z,1424.10
2023-03-20T16:19:30.778Z,1199.93
2023-03-20T16:22:02.166Z,978.67
2023-03-20T16:24:36.027Z,1591.83
2023-03-20T16:27:08.580Z,946.07
2023-03-20T16:29:38.271Z,1711.23
2023-03-20T16:32:08.668Z,1320.50
2023-03-20T16:34:39.620Z,1589.03
2023-03-20T16:37:09.510Z,1580.50
2023-03-20T16:39:38.941Z,452.50
2023-03-20T16:42:24.340Z,677.07
2023-03-20T16:44:56.000Z,1468.50
2023-03-20T16:47:25.549Z,981.43
2023-03-20T16:50:11.752Z,1963.57
2023-03-20T16:52:41.534Z,664.47
2023-03-20T16:55:18.088Z,870.37
2023-03-20T16:57:48.572Z,966.23
2023-03-20T17:00:30.931Z,976.23
2023-03-20T17:03:10.951Z,286.17
2023-03-20T17:05:57.879Z,654.70
2023-03-20T17:08:35.152Z,91.10
2023-03-20T17:11:11.553Z,1369.47
2023-03-20T17:13:39.710Z,349.73
2023-03-20T17:16:08.912Z,738.60
2023-03-20T17:18:38.064Z,1647.63
2023-03-20T17:21:06.477Z,981.87
2023-03-20T17:23:35.063Z,1365.03
2023-03-20T17:26:03.176Z,1648.87
2023-03-20T17:28:37.059Z,245.67
2023-03-20T17:31:06.405Z,717.37
2023-03-20T17:33:36.341Z,482.77
2023-03-20T17:36:04.610Z,122.83
2023-03-20T17:38:32.660Z,816.23
2023-03-20T17:41:00.699Z,790.50
2023-03-20T17:43:28.732Z,900.20
2023-03-20T17:45:59.409Z,472.67
2023-03-20T17:48:27.509Z,705.43
2023-03-20T17:50:55.802Z,1247.20
2023-03-20T17:53:25.548Z,1881.60
2023-03-20T17:55:54.179Z,955.63
2023-03-20T17:58:23.805Z,446.83
2023-03-20T18:00:52.704Z,704.70
2023-03-20T18:03:22.752Z,620.23
2023-03-20T18:05:52.282Z,1131.27
2023-03-20T18:08:23.175Z,721.80
2023-03-20T18:10:52.902Z,360.83
2023-03-20T18:13:21.290Z,1347.20
2023-03-20T18:15:50.216Z,1049.43
2023-03-20T18:18:19.031Z,1234.03
2023-03-20T18:20:48.790Z,1104.90
2023-03-20T18:23:17.385Z,1237.57
2023-03-20T18:25:45.504Z,839.83
2023-03-20T18:28:20.414Z,964.80
2023-03-20T18:30:49.002Z,221.00
2023-03-20T18:33:17.638Z,800.83
2023-03-20T18:35:45.896Z,239.37
2023-03-20T18:38:15.348Z,728.27
2023-03-20T18:40:47.219Z,1277.33
2023-03-20T18:43:15.476Z,989.37
2023-03-20T18:45:43.484Z,1172.43
2023-03-20T18:48:13.693Z,1274.23
2023-03-20T18:50:43.220Z,886.87
2023-03-20T18:53:12.047Z,631.43
2023-03-20T18:55:41.730Z,904.97
2023-03-20T18:58:21.461Z,1114.40
2023-03-20T19:00:50.145Z,977.80
2023-03-20T19:03:18.215Z,844.60
2023-03-20T19:05:46.256Z,968.33
2023-03-20T19:08:16.974Z,485.30
2023-03-20T19:10:47.007Z,575.93
2023-03-20T19:13:16.439Z,265.60
2023-03-20T19:15:45.550Z,425.53
2023-03-20T19:18:17.217Z,93.73
2023-03-20T19:20:48.016Z,1082.20
2023-03-20T19:23:17.652Z,554.87
2023-03-20T19:25:48.915Z,799.13
2023-03-20T19:28:34.584Z,631.37
2023-03-20T19:31:06.534Z,1081.77
2023-03-20T19:33:34.671Z,751.63
2023-03-20T19:36:04.352Z,573.90
2023-03-20T19:38:34.143Z,1047.63
2023-03-20T19:41:03.858Z,880.93
2023-03-20T19:43:32.424Z,557.60
2023-03-20T19:46:00.997Z,650.43
2023-03-20T19:48:46.154Z,1233.17
2023-03-20T19:51:20.224Z,258.97
2023-03-20T19:53:48.786Z,71.00
2023-03-20T19:56:19.456Z,826.43
2023-03-20T19:58:47.762Z,761.90
2023-03-20T20:01:18.950Z,717.17
2023-03-20T20:03:48.168Z,508.80
2023-03-20T20:06:16.210Z,219.13
2023-03-20T20:08:48.728Z,275.20
2023-03-20T20:11:19.140Z,331.10
2023-03-20T20:14:05.311Z,835.27
2023-03-20T20:16:35.618Z,117.90
2023-03-20T20:19:04.008Z,338.50
2023-03-20T20:22:17.191Z,447.93
2023-03-20T20:24:20.722Z,37.03
2023-03-20T20:26:55.242Z,202.73
2023-03-20T20:29:28.199Z,307.17
2023-03-20T20:31:56.298Z,626.87
2023-03-20T20:35:22.640Z,594.63
2023-03-20T20:40:00.962Z,1199.20
2023-03-20T20:42:30.421Z,911.97
2023-03-20T20:44:58.554Z,877.20
2023-03-20T20:47:26.589Z,923.80
2023-03-20T20:49:54.676Z,615.47
2023-03-20T20:52:22.768Z,556.97
2023-03-20T20:54:50.791Z,898.97
2023-03-20T20:57:18.790Z,463.27
2023-03-20T20:59:48.203Z,603.17
2023-03-20T21:02:17.591Z,464.73
2023-03-20T21:04:45.771Z,379.73
2023-03-20T21:07:14.723Z,1092.80
2023-03-20T21:09:42.998Z,236.63
2023-03-20T21:12:22.675Z,966.73
2023-03-20T21:15:01.061Z,346.73
2023-03-20T21:17:29.867Z,847.83
2023-03-20T21:19:58.028Z,599.50
2023-03-20T21:22:26.960Z,210.17
2023-03-20T21:25:10.954Z,252.37
2023-03-20T21:27:41.755Z,206.23
2023-03-20T21:30:12.528Z,392.37
2023-03-20T21:32:40.801Z,279.13
2023-03-20T21:35:09.543Z,73.27
2023-03-20T21:40:26.421Z,655.93
2023-03-20T21:42:54.501Z,236.57
2023-03-20T21:46:15.337Z,581.03
2023-03-20T21:57:18.053Z,331.03
2023-03-20T22:00:01.223Z,333.53
2023-03-20T22:02:23.767Z,434.53
2023-03-20T22:17:00.589Z,260.73
2023-03-20T22:22:37.416Z,104.07
2023-03-20T22:25:32.016Z,706.60
2023-03-20T22:28:00.877Z,591.07
2023-03-20T22:39:27.098Z,429.37
2023-03-20T22:44:58.640Z,66.43
2023-03-20T22:47:06.771Z,169.87
2023-03-20T22:49:34.932Z,384.67
2023-03-20T22:52:20.040Z,296.40
2023-03-20T22:54:52.389Z,1239.43
2023-03-20T22:57:20.670Z,825.53
2023-03-20T22:59:48.768Z,486.90
2023-03-20T23:02:16.791Z,385.93
2023-03-20T23:04:44.875Z,370.80
2023-03-20T23:07:14.307Z,418.37
2023-03-20T23:09:42.320Z,384.37
2023-03-20T23:12:11.068Z,231.33
2023-03-20T23:14:45.813Z,268.93
2023-03-20T23:17:14.397Z,433.23
2023-03-20T23:19:48.967Z,860.60
2023-03-20T23:22:21.631Z,1453.10
2023-03-20T23:24:50.232Z,720.20
2023-03-20T23:27:19.751Z,510.73
2023-03-20T23:29:47.767Z,503.57
2023-03-20T23:32:16.082Z,1042.53
2023-03-20T23:34:44.120Z,346.17
2023-03-20T23:37:12.111Z,365.27
2023-03-20T23:39:41.925Z,471.67
2023-03-20T23:42:23.962Z,630.87
2023-03-20T23:45:02.203Z,146.23
2023-03-20T23:47:44.409Z,180.87
2023-03-20T23:50:20.656Z,1106.50
2023-03-20T23:53:03.596Z,152.73
2023-03-20T23:55:39.305Z,721.87
2023-03-20T23:58:07.558Z,283.93
